Time;durP1;ratioP1;P1;durP2;ratioP2;P2;SDS_P1;SDS_P2;PMS_P1;PMS_P2;Temp;Humidity;BMP_temperature;BMP_pressure;BME280_temperature;BME280_humidity;BME280_pressure;Samples;Min_cycle;Max_cycle;Signal;HPM_P1;HPM_P2
2022/09/20 00:01:27;;;;;;;;;;;23.90;43.90;;;;;;1586784;73;771;-58
2022/09/20 00:03:29;;;;;;;;;;;23.90;43.90;;;;;;1593152;73;709;-59
2022/09/20 00:05:32;;;;;;;;;;;23.90;43.90;;;;;;1596748;73;1061;-57
2022/09/20 00:07:34;;;;;;;;;;;24.00;43.90;;;;;;1600250;72;696;-59
2022/09/20 00:09:36;;;;;;;;;;;24.00;43.90;;;;;;1599187;72;1576;-59
2022/09/20 00:11:38;;;;;;;;;;;24.00;43.90;;;;;;1604244;72;1940;-59
2022/09/20 00:13:40;;;;;;;;;;;23.90;43.90;;;;;;1596001;72;695;-58
2022/09/20 00:15:42;;;;;;;;;;;24.00;43.90;;;;;;1602798;73;1185;-59
2022/09/20 00:17:44;;;;;;;;;;;23.90;44.00;;;;;;1596316;73;773;-59
2022/09/20 00:19:46;;;;;;;;;;;23.90;43.90;;;;;;1591659;73;701;-58
2022/09/20 00:21:48;;;;;;;;;;;24.00;44.00;;;;;;1596546;73;652;-58
2022/09/20 00:23:51;;;;;;;;;;;24.00;43.90;;;;;;1598985;73;1523;-58
2022/09/20 00:25:56;;;;;;;;;;;24.00;43.80;;;;;;1595017;73;741;-57
2022/09/20 00:27:58;;;;;;;;;;;23.90;43.90;;;;;;1594005;73;785;-57
2022/09/20 00:30:00;;;;;;;;;;;24.00;43.90;;;;;;1598435;73;819;-59
2022/09/20 00:32:02;;;;;;;;;;;24.00;44.00;;;;;;1591633;73;1938;-58
2022/09/20 00:36:24;;;;;;;;;;;24.00;43.90;;;;;;1593041;72;1649;-59
2022/09/20 00:38:26;;;;;;;;;;;24.00;43.90;;;;;;1594613;73;1562;-59
2022/09/20 00:40:29;;;;;;;;;;;24.00;43.90;;;;;;1604708;73;959;-59
2022/09/20 00:42:30;;;;;;;;;;;23.90;44.00;;;;;;1594538;73;693;-59
2022/09/20 00:44:46;;;;;;;;;;;23.90;43.90;;;;;;1593340;73;1105;-58
2022/09/20 00:46:48;;;;;;;;;;;24.00;44.00;;;;;;1586883;73;759;-58
2022/09/20 00:48:50;;;;;;;;;;;23.90;44.00;;;;;;1590792;73;683;-58
2022/09/20 00:50:54;;;;;;;;;;;23.90;44.00;;;;;;1595203;73;707;-58
2022/09/20 00:52:58;;;;;;;;;;;23.90;44.10;;;;;;1591855;73;1915;-59
2022/09/20 00:55:00;;;;;;;;;;;23.90;44.10;;;;;;1587786;73;1135;-58
2022/09/20 00:57:01;;;;;;;;;;;23.90;44.10;;;;;;1588184;73;778;-57
2022/09/20 00:59:05;;;;;;;;;;;23.90;44.20;;;;;;1593837;73;784;-59
2022/09/20 01:01:07;;;;;;;;;;;23.90;44.20;;;;;;1580449;73;1551;-54
2022/09/20 01:03:09;;;;;;;;;;;23.90;44.20;;;;;;1591087;73;748;-56
2022/09/20 01:05:11;;;;;;;;;;;23.90;44.20;;;;;;1588581;73;1144;-59
2022/09/20 01:07:13;;;;;;;;;;;23.90;44.20;;;;;;1592384;72;1383;-59
2022/09/20 01:09:15;;;;;;;;;;;23.90;44.20;;;;;;1596271;72;797;-59
2022/09/20 01:11:17;;;;;;;;;;;23.90;44.20;;;;;;1594300;73;1923;-58
2022/09/20 01:13:19;;;;;;;;;;;23.90;44.20;;;;;;1597316;73;745;-59
2022/09/20 01:15:22;;;;;;;;;;;23.90;44.20;;;;;;1591036;73;1146;-56
2022/09/20 01:17:24;;;;;;;;;;;23.90;44.20;;;;;;1597603;73;686;-57
2022/09/20 01:19:28;;;;;;;;;;;23.90;44.20;;;;;;1591111;73;827;-57
2022/09/20 01:21:29;;;;;;;;;;;23.90;44.20;;;;;;1598768;73;1710;-59
2022/09/20 01:23:33;;;;;;;;;;;23.90;44.20;;;;;;1603495;73;681;-59
2022/09/20 01:25:53;;;;;;;;;;;23.90;44.20;;;;;;1590225;73;1057;-57
2022/09/20 01:27:55;;;;;;;;;;;23.90;44.20;;;;;;1597082;73;711;-60
2022/09/20 01:29:58;;;;;;;;;;;23.90;44.20;;;;;;1598325;73;766;-58
2022/09/20 01:32:01;;;;;;;;;;;23.90;44.20;;;;;;1602304;72;1940;-59
2022/09/20 01:34:13;;;;;;;;;;;23.90;44.20;;;;;;1594372;74;1569;-59
2022/09/20 01:36:18;;;;;;;;;;;23.90;44.20;;;;;;1579232;74;1785;-59
2022/09/20 01:38:31;;;;;;;;;;;23.90;44.20;;;;;;1589634;74;582;-59
2022/09/20 01:40:34;;;;;;;;;;;23.90;44.20;;;;;;1599895;72;1006;-59
2022/09/20 01:42:37;;;;;;;;;;;23.90;44.30;;;;;;1599336;74;1824;-59
2022/09/20 01:44:40;;;;;;;;;;;23.90;44.20;;;;;;1596556;74;1212;-60
2022/09/20 01:46:42;;;;;;;;;;;23.80;44.20;;;;;;1597257;74;763;-56
2022/09/20 01:48:44;;;;;;;;;;;23.90;44.20;;;;;;1592980;72;1576;-56
2022/09/20 01:50:54;;;;;;;;;;;23.90;44.10;;;;;;1600121;74;670;-54
2022/09/20 01:52:57;;;;;;;;;;;23.80;44.10;;;;;;1593815;74;1943;-59
2022/09/20 01:55:17;;;;;;;;;;;23.80;44.10;;;;;;1601926;74;1881;-59
2022/09/20 01:57:21;;;;;;;;;;;23.90;44.20;;;;;;1593610;74;683;-58
2022/09/20 01:59:30;;;;;;;;;;;23.80;44.10;;;;;;1584674;72;755;-58
2022/09/20 02:01:37;;;;;;;;;;;23.80;44.10;;;;;;1599480;74;1852;-60
2022/09/20 02:03:53;;;;;;;;;;;23.80;44.10;;;;;;1569111;72;1680;-59
2022/09/20 02:05:56;;;;;;;;;;;23.90;44.20;;;;;;1585421;73;687;-60
2022/09/20 02:08:02;;;;;;;;;;;23.90;44.10;;;;;;1594434;72;2216;-59
2022/09/20 02:10:24;;;;;;;;;;;23.90;44.00;;;;;;1597472;74;746;-57
2022/09/20 02:12:40;;;;;;;;;;;23.90;44.00;;;;;;1581942;73;1984;-57
2022/09/20 02:14:49;;;;;;;;;;;23.90;44.10;;;;;;1596434;74;1818;-59
2022/09/20 02:16:52;;;;;;;;;;;23.90;44.10;;;;;;1539407;74;1617;-59
2022/09/20 02:19:12;;;;;;;;;;;23.90;44.20;;;;;;1597310;74;2441;-55
2022/09/20 02:21:16;;;;;;;;;;;23.90;44.20;;;;;;1595342;73;667;-60
2022/09/20 02:23:25;;;;;;;;;;;23.90;44.20;;;;;;1590108;74;675;-58
2022/09/20 02:25:32;;;;;;;;;;;23.90;44.20;;;;;;1583700;74;1217;-57
2022/09/20 02:27:52;;;;;;;;;;;23.90;44.20;;;;;;1596513;74;769;-58
2022/09/20 02:29:56;;;;;;;;;;;23.90;44.20;;;;;;1593111;74;772;-58
2022/09/20 02:31:59;;;;;;;;;;;24.00;44.10;;;;;;1596364;72;1930;-56
2022/09/20 02:34:09;;;;;;;;;;;24.00;44.00;;;;;;1602862;74;1170;-58
2022/09/20 02:36:13;;;;;;;;;;;24.20;44.00;;;;;;1591534;74;1451;-58
2022/09/20 02:38:25;;;;;;;;;;;24.20;43.90;;;;;;1609538;72;660;-58
2022/09/20 02:40:29;;;;;;;;;;;24.20;43.80;;;;;;1586737;74;1986;-58
2022/09/20 02:42:41;;;;;;;;;;;24.20;43.80;;;;;;1598854;74;1474;-57
2022/09/20 02:44:45;;;;;;;;;;;24.20;43.80;;;;;;1598011;74;1569;-58
2022/09/20 02:46:54;;;;;;;;;;;24.20;43.90;;;;;;1594344;74;690;-57
2022/09/20 02:49:01;;;;;;;;;;;24.00;44.00;;;;;;1595831;74;720;-58
2022/09/20 02:51:05;;;;;;;;;;;24.00;44.20;;;;;;1592398;74;686;-59
2022/09/20 02:53:23;;;;;;;;;;;24.00;44.30;;;;;;1592995;73;2022;-58
2022/09/20 02:55:43;;;;;;;;;;;23.90;44.40;;;;;;1581020;74;1128;-59
2022/09/20 02:57:47;;;;;;;;;;;23.90;44.60;;;;;;1588403;74;715;-59
2022/09/20 03:00:05;;;;;;;;;;;23.80;44.70;;;;;;1585170;73;1567;-57
2022/09/20 03:02:08;;;;;;;;;;;23.80;44.80;;;;;;1590770;73;772;-58
2022/09/20 03:04:12;;;;;;;;;;;23.90;45.00;;;;;;1590698;74;1132;-59
2022/09/20 03:06:18;;;;;;;;;;;23.90;45.10;;;;;;1595213;72;1546;-57
2022/09/20 03:08:22;;;;;;;;;;;23.80;45.00;;;;;;1588485;73;1662;-58
2022/09/20 03:10:42;;;;;;;;;;;23.90;45.10;;;;;;1593018;74;1932;-58
2022/09/20 03:13:04;;;;;;;;;;;23.80;45.10;;;;;;1588632;74;1934;-58
2022/09/20 03:15:24;;;;;;;;;;;23.80;45.20;;;;;;1593800;74;1162;-58
2022/09/20 03:17:41;;;;;;;;;;;23.90;45.20;;;;;;1600924;73;830;-58
2022/09/20 03:19:44;;;;;;;;;;;23.80;45.20;;;;;;1586453;73;1100;-58
2022/09/20 03:21:54;;;;;;;;;;;23.80;45.20;;;;;;1583703;73;1962;-58
2022/09/20 03:24:00;;;;;;;;;;;23.80;45.20;;;;;;1584393;72;1139;-56
2022/09/20 03:26:04;;;;;;;;;;;23.80;45.30;;;;;;1588011;73;638;-55
2022/09/20 03:28:24;;;;;;;;;;;23.90;45.50;;;;;;1597501;74;1907;-57
2022/09/20 03:30:46;;;;;;;;;;;23.80;45.40;;;;;;1584326;74;752;-55
2022/09/20 03:32:50;;;;;;;;;;;23.80;45.40;;;;;;1581285;74;1929;-58
2022/09/20 03:34:57;;;;;;;;;;;23.80;45.40;;;;;;1603296;74;1918;-58
2022/09/20 03:37:00;;;;;;;;;;;23.80;45.40;;;;;;1588477;74;2040;-57
2022/09/20 03:39:06;;;;;;;;;;;23.80;45.40;;;;;;1587429;74;1157;-58
2022/09/20 03:41:13;;;;;;;;;;;23.90;45.50;;;;;;1588838;74;1974;-58
2022/09/20 03:43:33;;;;;;;;;;;23.80;45.50;;;;;;1588407;74;1775;-57
2022/09/20 03:45:40;;;;;;;;;;;23.80;45.50;;;;;;1584189;74;1118;-57
2022/09/20 03:47:43;;;;;;;;;;;23.80;45.50;;;;;;1599661;74;1885;-54
2022/09/20 03:49:47;;;;;;;;;;;23.90;45.50;;;;;;1603056;74;692;-58
2022/09/20 03:52:02;;;;;;;;;;;23.90;45.50;;;;;;1552466;74;996;-58
2022/09/20 03:54:18;;;;;;;;;;;23.80;45.40;;;;;;1589045;74;1199;-56
2022/09/20 03:56:22;;;;;;;;;;;23.90;45.50;;;;;;1583743;72;1586;-57
2022/09/20 03:58:28;;;;;;;;;;;23.80;45.40;;;;;;1589566;73;699;-57
2022/09/20 04:00:34;;;;;;;;;;;23.90;45.50;;;;;;1587304;72;1956;-58
2022/09/20 04:02:38;;;;;;;;;;;23.90;45.40;;;;;;1581372;74;1961;-58
2022/09/20 04:04:53;;;;;;;;;;;24.00;45.20;;;;;;1601316;74;1717;-57
2022/09/20 04:07:15;;;;;;;;;;;24.00;45.10;;;;;;1594131;74;1858;-55
2022/09/20 04:09:21;;;;;;;;;;;24.10;45.00;;;;;;1595799;74;1520;-58
2022/09/20 04:11:29;;;;;;;;;;;24.20;44.70;;;;;;1591026;72;759;-58
2022/09/20 04:13:32;;;;;;;;;;;24.20;44.50;;;;;;1603657;74;1910;-57
2022/09/20 04:15:39;;;;;;;;;;;24.20;44.30;;;;;;1595022;74;1137;-55
2022/09/20 04:17:59;;;;;;;;;;;24.30;44.20;;;;;;1593976;74;1057;-58
2022/09/20 04:20:08;;;;;;;;;;;24.40;44.00;;;;;;1591354;74;876;-57
2022/09/20 04:22:10;;;;;;;;;;;24.50;43.90;;;;;;1597810;72;1906;-54
2022/09/20 04:24:32;;;;;;;;;;;24.50;43.90;;;;;;1596836;74;1551;-58
2022/09/20 04:26:36;;;;;;;;;;;24.50;44.00;;;;;;1604031;74;670;-58
2022/09/20 04:28:39;;;;;;;;;;;24.50;43.80;;;;;;1597121;73;1906;-57
2022/09/20 04:30:42;;;;;;;;;;;24.50;43.80;;;;;;1589379;74;1635;-54
2022/09/20 04:32:46;;;;;;;;;;;24.50;43.70;;;;;;1597079;74;1921;-53
2022/09/20 04:37:17;;;;;;;;;;;24.60;43.50;;;;;;1589489;74;1754;-57
2022/09/20 04:39:20;;;;;;;;;;;24.60;43.50;;;;;;1603168;74;2084;-59
2022/09/20 04:41:28;;;;;;;;;;;24.50;43.70;;;;;;1586821;73;1903;-57
2022/09/20 04:43:52;;;;;;;;;;;24.40;43.80;;;;;;1600297;74;1797;-55
2022/09/20 04:45:53;;;;;;;;;;;24.30;43.90;;;;;;1590768;73;1641;-59
2022/09/20 04:48:14;;;;;;;;;;;24.50;43.90;;;;;;1596894;74;720;-57
2022/09/20 04:50:33;;;;;;;;;;;24.50;43.70;;;;;;1603034;74;679;-58
2022/09/20 04:52:40;;;;;;;;;;;24.60;43.60;;;;;;1596581;72;1928;-57
2022/09/20 04:54:46;;;;;;;;;;;24.60;43.60;;;;;;1591453;74;1987;-58
2022/09/20 04:56:53;;;;;;;;;;;24.50;43.60;;;;;;1579314;74;1790;-58
2022/09/20 04:59:07;;;;;;;;;;;24.60;43.70;;;;;;1593218;74;1594;-59
2022/09/20 05:01:18;;;;;;;;;;;24.60;43.60;;;;;;1594403;73;702;-59
2022/09/20 05:03:39;;;;;;;;;;;24.60;43.70;;;;;;1595713;74;709;-59
2022/09/20 05:05:55;;;;;;;;;;;24.50;43.60;;;;;;1587573;74;1555;-58
2022/09/20 05:08:12;;;;;;;;;;;24.50;43.60;;;;;;1588541;74;737;-59
2022/09/20 05:10:25;;;;;;;;;;;24.60;43.60;;;;;;1593601;74;753;-59
2022/09/20 05:12:40;;;;;;;;;;;24.60;43.60;;;;;;1603903;72;1940;-56
2022/09/20 05:14:56;;;;;;;;;;;24.60;43.60;;;;;;1587793;73;1146;-59
2022/09/20 05:17:03;;;;;;;;;;;24.50;43.70;;;;;;1591641;74;682;-58
2022/09/20 05:19:06;;;;;;;;;;;24.50;43.80;;;;;;1591218;73;1568;-59
2022/09/20 05:21:25;;;;;;;;;;;24.40;43.80;;;;;;1585401;73;751;-59
2022/09/20 05:23:45;;;;;;;;;;;24.50;44.10;;;;;;1599493;74;2022;-56
2022/09/20 05:25:50;;;;;;;;;;;24.40;44.00;;;;;;1589269;73;722;-56
2022/09/20 05:27:54;;;;;;;;;;;24.50;44.10;;;;;;1606616;73;866;-58
2022/09/20 05:30:01;;;;;;;;;;;24.50;44.10;;;;;;1597914;73;1870;-57
2022/09/20 05:32:04;;;;;;;;;;;24.50;44.20;;;;;;1598533;74;835;-59
2022/09/20 05:34:16;;;;;;;;;;;24.50;44.30;;;;;;1588409;72;1930;-58
2022/09/20 05:36:19;;;;;;;;;;;24.30;44.30;;;;;;1597417;73;1605;-57
2022/09/20 05:38:39;;;;;;;;;;;24.30;44.50;;;;;;1596354;74;686;-57
2022/09/20 05:40:49;;;;;;;;;;;24.20;44.70;;;;;;1600315;74;668;-59
2022/09/20 05:43:11;;;;;;;;;;;24.20;45.00;;;;;;1598620;74;704;-57
2022/09/20 05:45:23;;;;;;;;;;;24.30;45.00;;;;;;1594509;74;1782;-58
2022/09/20 05:47:36;;;;;;;;;;;24.50;44.60;;;;;;1589303;72;1644;-57
2022/09/20 05:49:45;;;;;;;;;;;24.50;44.40;;;;;;1568313;74;704;-58
2022/09/20 05:51:55;;;;;;;;;;;24.60;44.20;;;;;;1585958;73;728;-57
2022/09/20 05:54:01;;;;;;;;;;;24.50;44.10;;;;;;1601700;74;2000;-59
2022/09/20 05:56:21;;;;;;;;;;;24.50;44.20;;;;;;1597296;74;665;-58
2022/09/20 05:58:25;;;;;;;;;;;24.50;44.30;;;;;;1594185;74;708;-58
2022/09/20 06:00:28;;;;;;;;;;;24.50;44.20;;;;;;1600299;72;946;-59
2022/09/20 06:02:38;;;;;;;;;;;24.40;44.20;;;;;;1595398;72;1570;-56
2022/09/20 06:04:41;;;;;;;;;;;24.40;44.30;;;;;;1589248;74;1698;-59
2022/09/20 06:07:02;;;;;;;;;;;24.40;44.40;;;;;;1584302;74;623;-59
2022/09/20 06:09:14;;;;;;;;;;;24.40;44.40;;;;;;1598841;74;706;-59
2022/09/20 06:11:30;;;;;;;;;;;24.40;44.40;;;;;;1589319;72;738;-59
2022/09/20 06:13:45;;;;;;;;;;;24.40;44.30;;;;;;1536000;75;1949;-57
2022/09/20 06:16:00;;;;;;;;;;;24.40;44.20;;;;;;1587441;74;1585;-58
2022/09/20 06:18:03;;;;;;;;;;;24.30;44.30;;;;;;1597456;74;768;-58
2022/09/20 06:20:25;;;;;;;;;;;24.30;44.30;;;;;;1594509;72;709;-59
2022/09/20 06:22:28;;;;;;;;;;;24.40;44.40;;;;;;1589126;73;796;-59
2022/09/20 06:24:47;;;;;;;;;;;24.40;44.30;;;;;;1582983;73;1127;-58
2022/09/20 06:26:50;;;;;;;;;;;24.40;44.30;;;;;;1588164;73;714;-59
2022/09/20 06:28:54;;;;;;;;;;;24.30;44.30;;;;;;1582940;73;606;-59
2022/09/20 06:30:56;;;;;;;;;;;24.30;44.30;;;;;;1585866;73;1820;-56
2022/09/20 06:32:59;;;;;;;;;;;24.50;44.30;;;;;;1591093;73;1904;-58
2022/09/20 06:35:01;;;;;;;;;;;24.40;44.20;;;;;;1598788;73;1139;-58
2022/09/20 06:42:01;;;;;;;;;;;24.40;44.20;;;;;;1588689;73;1634;-57
2022/09/20 06:44:04;;;;;;;;;;;24.30;44.30;;;;;;1590562;73;1524;-58
2022/09/20 06:46:06;;;;;;;;;;;24.40;44.30;;;;;;1592646;73;773;-58
2022/09/20 06:48:10;;;;;;;;;;;24.40;44.20;;;;;;1591005;73;662;-58
2022/09/20 06:50:15;;;;;;;;;;;24.50;44.30;;;;;;1592459;73;2025;-58
2022/09/20 06:52:18;;;;;;;;;;;24.40;44.20;;;;;;1597800;73;752;-58
2022/09/20 06:54:20;;;;;;;;;;;24.40;44.20;;;;;;1603895;73;1937;-59
2022/09/20 06:56:23;;;;;;;;;;;24.50;44.20;;;;;;1596755;73;869;-59
2022/09/20 06:58:25;;;;;;;;;;;24.30;44.10;;;;;;1584121;73;1339;-59
2022/09/20 07:00:27;;;;;;;;;;;24.40;43.90;;;;;;1594729;73;741;-59
2022/09/20 07:02:29;;;;;;;;;;;24.20;43.60;;;;;;1598206;73;785;-57
2022/09/20 07:04:31;;;;;;;;;;;24.20;43.40;;;;;;1598580;73;1147;-58
2022/09/20 07:06:33;;;;;;;;;;;24.10;43.10;;;;;;1597904;73;667;-59
2022/09/20 07:08:35;;;;;;;;;;;24.00;42.80;;;;;;1593002;73;702;-58
2022/09/20 07:10:37;;;;;;;;;;;24.00;42.40;;;;;;1590246;73;693;-59
2022/09/20 07:12:39;;;;;;;;;;;24.00;42.00;;;;;;1600349;73;1547;-59
2022/09/20 07:14:41;;;;;;;;;;;23.90;41.70;;;;;;1600753;73;1944;-58
2022/09/20 07:16:43;;;;;;;;;;;23.90;41.80;;;;;;1602252;73;667;-58
2022/09/20 07:18:45;;;;;;;;;;;23.80;41.60;;;;;;1592666;73;663;-58
2022/09/20 07:20:47;;;;;;;;;;;23.80;41.70;;;;;;1583596;73;720;-57
2022/09/20 07:22:49;;;;;;;;;;;23.80;41.70;;;;;;1601171;73;767;-58
2022/09/20 07:24:51;;;;;;;;;;;23.90;41.80;;;;;;1593145;73;1252;-59
2022/09/20 07:26:57;;;;;;;;;;;23.80;41.60;;;;;;1595565;73;1573;-58
2022/09/20 07:28:59;;;;;;;;;;;23.80;41.60;;;;;;1593520;72;743;-59
2022/09/20 07:31:00;;;;;;;;;;;23.90;41.70;;;;;;1601794;73;764;-57
2022/09/20 07:33:02;;;;;;;;;;;23.80;41.60;;;;;;1586520;72;740;-60
2022/09/20 07:35:05;;;;;;;;;;;23.90;41.70;;;;;;1592180;74;1151;-58
2022/09/20 07:37:06;;;;;;;;;;;23.80;41.50;;;;;;1588047;74;814;-59
2022/09/20 07:39:08;;;;;;;;;;;23.80;41.50;;;;;;1602133;74;705;-57
2022/09/20 07:41:10;;;;;;;;;;;23.80;41.40;;;;;;1600564;72;1569;-57
2022/09/20 07:43:12;;;;;;;;;;;23.80;41.40;;;;;;1586216;72;762;-58
2022/09/20 07:45:14;;;;;;;;;;;23.90;41.30;;;;;;1583956;74;1184;-59
2022/09/20 07:47:16;;;;;;;;;;;23.90;41.30;;;;;;1599998;74;683;-59
2022/09/20 07:49:19;;;;;;;;;;;23.90;41.30;;;;;;1596470;74;725;-58
2022/09/20 07:51:21;;;;;;;;;;;24.00;41.20;;;;;;1599170;74;760;-58
2022/09/20 07:53:23;;;;;;;;;;;24.00;41.00;;;;;;1594117;74;1916;-59
2022/09/20 07:55:24;;;;;;;;;;;23.90;40.90;;;;;;1599563;74;1746;-58
2022/09/20 07:57:26;;;;;;;;;;;23.90;40.70;;;;;;1598844;74;690;-58
2022/09/20 07:59:28;;;;;;;;;;;24.00;40.80;;;;;;1586955;74;732;-57
2022/09/20 08:01:30;;;;;;;;;;;24.00;40.70;;;;;;1601440;74;765;-59
2022/09/20 08:03:32;;;;;;;;;;;24.00;40.80;;;;;;1598493;73;676;-58
2022/09/20 08:05:34;;;;;;;;;;;24.00;40.70;;;;;;1603308;73;1093;-59
2022/09/20 08:07:37;;;;;;;;;;;24.00;40.70;;;;;;1596086;73;1665;-58
2022/09/20 08:09:39;;;;;;;;;;;24.00;40.80;;;;;;1596027;73;637;-59
2022/09/20 08:11:42;;;;;;;;;;;24.00;40.70;;;;;;1596748;74;682;-58
2022/09/20 08:13:50;;;;;;;;;;;24.00;40.90;;;;;;1595368;74;1918;-57
2022/09/20 08:15:54;;;;;;;;;;;24.00;40.70;;;;;;1591870;73;730;-59
2022/09/20 08:17:56;;;;;;;;;;;24.00;40.50;;;;;;1590323;73;1916;-58
2022/09/20 08:19:58;;;;;;;;;;;24.00;40.70;;;;;;1590391;73;686;-58
2022/09/20 08:22:00;;;;;;;;;;;24.10;40.90;;;;;;1595415;74;1389;-58
2022/09/20 08:24:02;;;;;;;;;;;24.00;41.00;;;;;;1599299;74;1135;-58
2022/09/20 08:26:05;;;;;;;;;;;24.00;41.30;;;;;;1590988;72;754;-59
2022/09/20 08:28:06;;;;;;;;;;;24.00;41.60;;;;;;1587609;72;783;-59
2022/09/20 08:30:09;;;;;;;;;;;23.90;41.90;;;;;;1597471;72;800;-59
2022/09/20 08:32:11;;;;;;;;;;;23.90;42.30;;;;;;1598536;72;786;-58
2022/09/20 08:34:13;;;;;;;;;;;23.80;42.40;;;;;;1588928;74;1912;-57
2022/09/20 08:36:16;;;;;;;;;;;23.70;42.60;;;;;;1593763;73;1539;-59
2022/09/20 08:38:18;;;;;;;;;;;23.70;42.80;;;;;;1595723;73;718;-58
2022/09/20 08:40:22;;;;;;;;;;;23.70;43.00;;;;;;1601719;73;749;-56
2022/09/20 08:42:30;;;;;;;;;;;23.70;43.20;;;;;;1598588;74;1671;-59
2022/09/20 08:44:36;;;;;;;;;;;23.70;43.40;;;;;;1597086;74;1125;-59
2022/09/20 08:46:51;;;;;;;;;;;23.60;43.30;;;;;;1588332;74;701;-58
2022/09/20 08:48:53;;;;;;;;;;;23.60;43.50;;;;;;1585026;74;700;-59
2022/09/20 08:50:55;;;;;;;;;;;23.70;43.70;;;;;;1598976;72;1530;-59
2022/09/20 08:52:57;;;;;;;;;;;23.60;43.70;;;;;;1600444;74;692;-57
2022/09/20 08:54:59;;;;;;;;;;;23.60;43.70;;;;;;1596650;74;1943;-57
2022/09/20 08:57:04;;;;;;;;;;;23.60;43.70;;;;;;1564906;75;738;-57
2022/09/20 08:59:06;;;;;;;;;;;23.60;43.80;;;;;;1598617;74;1743;-59
2022/09/20 09:01:10;;;;;;;;;;;23.60;43.80;;;;;;1595598;73;688;-57
2022/09/20 09:03:12;;;;;;;;;;;23.60;44.00;;;;;;1595517;74;705;-56
2022/09/20 09:05:31;;;;;;;;;;;23.60;43.90;;;;;;1599960;74;1400;-59
2022/09/20 09:07:33;;;;;;;;;;;23.70;44.10;;;;;;1589591;74;697;-55
2022/09/20 09:09:35;;;;;;;;;;;23.60;44.00;;;;;;1592239;74;726;-59
2022/09/20 09:11:39;;;;;;;;;;;23.60;44.00;;;;;;1598733;73;693;-58
2022/09/20 09:14:03;;;;;;;;;;;23.60;44.10;;;;;;1600534;73;1944;-59
2022/09/20 09:16:04;;;;;;;;;;;23.70;44.20;;;;;;1591112;73;1628;-60
2022/09/20 09:18:07;;;;;;;;;;;23.70;44.30;;;;;;1580487;74;2003;-56
2022/09/20 09:20:17;;;;;;;;;;;23.70;44.30;;;;;;1594720;73;714;-56
2022/09/20 09:22:20;;;;;;;;;;;23.70;44.20;;;;;;1597838;74;664;-58
2022/09/20 09:24:22;;;;;;;;;;;23.70;44.00;;;;;;1595338;73;1146;-57
2022/09/20 09:26:24;;;;;;;;;;;23.70;44.10;;;;;;1575528;74;732;-55
2022/09/20 09:28:30;;;;;;;;;;;23.80;44.10;;;;;;1593071;72;748;-60
2022/09/20 09:30:30;;;;;;;;;;;23.80;44.10;;;;;;1589332;74;1680;-59
2022/09/20 09:32:36;;;;;;;;;;;23.90;43.70;;;;;;1579835;72;1452;-59
2022/09/20 09:34:37;;;;;;;;;;;24.10;43.50;;;;;;1585351;72;1914;-57
2022/09/20 09:36:41;;;;;;;;;;;24.10;43.00;;;;;;1588489;73;666;-55
2022/09/20 09:38:46;;;;;;;;;;;24.20;42.80;;;;;;1581245;74;1434;-59
2022/09/20 09:40:49;;;;;;;;;;;24.20;42.70;;;;;;1603336;74;752;-57
2022/09/20 09:42:52;;;;;;;;;;;24.20;42.60;;;;;;1595508;74;687;-59
2022/09/20 09:44:55;;;;;;;;;;;24.20;42.30;;;;;;1589043;74;1128;-57
2022/09/20 09:46:57;;;;;;;;;;;24.20;42.20;;;;;;1598837;74;1553;-58
2022/09/20 09:49:15;;;;;;;;;;;24.30;42.10;;;;;;1600801;74;724;-60
2022/09/20 09:51:18;;;;;;;;;;;24.40;41.90;;;;;;1593686;74;675;-59
2022/09/20 09:53:23;;;;;;;;;;;24.30;41.80;;;;;;1592383;74;775;-59
2022/09/20 09:55:29;;;;;;;;;;;24.30;41.80;;;;;;1590672;74;1933;-58
2022/09/20 09:57:33;;;;;;;;;;;24.40;41.80;;;;;;1584355;74;1809;-59
2022/09/20 09:59:39;;;;;;;;;;;24.30;41.70;;;;;;1598311;73;671;-56
2022/09/20 10:01:58;;;;;;;;;;;24.40;41.50;;;;;;1594376;73;1965;-59
2022/09/20 10:04:19;;;;;;;;;;;24.30;41.60;;;;;;1596725;74;1138;-59
2022/09/20 10:06:23;;;;;;;;;;;24.30;41.70;;;;;;1597277;73;1677;-57
2022/09/20 10:08:34;;;;;;;;;;;24.20;41.50;;;;;;1600035;74;1852;-59
2022/09/20 10:10:47;;;;;;;;;;;24.20;41.50;;;;;;1583643;74;2043;-55
2022/09/20 10:13:07;;;;;;;;;;;24.20;41.60;;;;;;1592855;74;1961;-57
2022/09/20 10:15:20;;;;;;;;;;;24.30;41.50;;;;;;1593980;72;1927;-58
2022/09/20 10:17:24;;;;;;;;;;;24.30;41.50;;;;;;1597820;73;677;-56
2022/09/20 10:19:30;;;;;;;;;;;24.20;41.50;;;;;;1597677;73;691;-60
2022/09/20 10:21:35;;;;;;;;;;;24.20;41.30;;;;;;1595898;72;1910;-58
2022/09/20 10:23:51;;;;;;;;;;;24.20;41.50;;;;;;1600875;73;1793;-59
2022/09/20 10:25:55;;;;;;;;;;;24.10;41.50;;;;;;1593382;73;681;-59
2022/09/20 10:27:58;;;;;;;;;;;24.20;41.50;;;;;;1588638;72;720;-59
2022/09/20 10:30:13;;;;;;;;;;;24.10;41.50;;;;;;1589597;73;1775;-57
2022/09/20 10:32:25;;;;;;;;;;;24.10;41.50;;;;;;1591887;73;714;-57
2022/09/20 10:34:31;;;;;;;;;;;24.20;41.50;;;;;;1582646;73;1931;-59
2022/09/20 10:36:34;;;;;;;;;;;24.20;41.50;;;;;;1583275;73;673;-60
2022/09/20 10:38:38;;;;;;;;;;;24.20;41.50;;;;;;1584541;73;1795;-57
2022/09/20 10:43:15;;;;;;;;;;;24.20;41.40;;;;;;1592131;73;1667;-58
2022/09/20 10:45:18;;;;;;;;;;;24.20;41.30;;;;;;1588194;73;1127;-60
2022/09/20 10:47:22;;;;;;;;;;;24.20;41.30;;;;;;1594791;73;736;-56
2022/09/20 10:49:27;;;;;;;;;;;24.20;41.20;;;;;;1599275;73;660;-60
2022/09/20 10:51:42;;;;;;;;;;;24.20;41.30;;;;;;1588882;73;690;-59
2022/09/20 10:53:45;;;;;;;;;;;24.20;41.30;;;;;;1591268;73;760;-56
2022/09/20 10:55:49;;;;;;;;;;;24.20;41.30;;;;;;1578827;73;1945;-57
2022/09/20 10:58:00;;;;;;;;;;;24.20;41.30;;;;;;1593017;72;1916;-59
2022/09/20 11:00:03;;;;;;;;;;;24.10;41.50;;;;;;1602874;73;1666;-58
2022/09/20 11:02:23;;;;;;;;;;;24.00;41.40;;;;;;1599711;73;694;-56
2022/09/20 11:04:30;;;;;;;;;;;24.00;41.50;;;;;;1589342;73;1142;-59
2022/09/20 11:06:50;;;;;;;;;;;24.20;41.40;;;;;;1593427;74;1986;-58
2022/09/20 11:08:54;;;;;;;;;;;24.20;41.40;;;;;;1594997;74;795;-59
2022/09/20 11:10:57;;;;;;;;;;;24.20;41.20;;;;;;1592549;73;1687;-59
2022/09/20 11:13:01;;;;;;;;;;;24.30;41.20;;;;;;1592998;73;705;-59
2022/09/20 11:15:04;;;;;;;;;;;24.30;41.20;;;;;;1594703;73;1923;-57
2022/09/20 11:17:13;;;;;;;;;;;24.20;40.80;;;;;;1598142;74;660;-56
2022/09/20 11:19:17;;;;;;;;;;;24.10;40.50;;;;;;1596750;73;635;-56
2022/09/20 11:21:20;;;;;;;;;;;24.00;40.50;;;;;;1588702;73;798;-56
2022/09/20 11:23:24;;;;;;;;;;;24.10;41.00;;;;;;1599018;73;700;-59
2022/09/20 11:25:30;;;;;;;;;;;24.20;40.80;;;;;;1599997;73;1584;-58
2022/09/20 11:29:35;;;;;;;;;;;24.10;40.80;;;;;;1548915;75;222321;-66
2022/09/20 11:31:38;;;;;;;;;;;24.20;40.70;;;;;;1546597;75;1778;-66
2022/09/20 11:33:42;;;;;;;;;;;24.10;40.80;;;;;;1557216;75;759;-64
2022/09/20 11:35:45;;;;;;;;;;;24.20;40.70;;;;;;1552566;75;1936;-64
2022/09/20 11:37:49;;;;;;;;;;;24.20;40.80;;;;;;1549556;75;1794;-68
2022/09/20 11:39:52;;;;;;;;;;;24.20;40.80;;;;;;1544990;75;1586;-64
2022/09/20 11:41:54;;;;;;;;;;;24.20;40.90;;;;;;1540831;75;757;-64
2022/09/20 11:43:59;;;;;;;;;;;24.10;40.80;;;;;;1543545;76;716;-64
2022/09/20 11:46:03;;;;;;;;;;;24.00;40.50;;;;;;1551009;76;839;-64
2022/09/20 11:48:15;;;;;;;;;;;24.00;40.50;;;;;;1542969;75;1128;-64
2022/09/20 11:50:37;;;;;;;;;;;24.00;40.40;;;;;;1547101;75;710;-65
2022/09/20 11:52:56;;;;;;;;;;;23.90;40.10;;;;;;1541749;77;1589;-64
2022/09/20 11:55:00;;;;;;;;;;;23.90;40.20;;;;;;1539625;75;1915;-64
2022/09/20 11:57:01;;;;;;;;;;;23.90;40.10;;;;;;1544129;77;788;-66
2022/09/20 11:59:04;;;;;;;;;;;23.80;39.90;;;;;;1540901;77;1127;-64
2022/09/20 12:01:06;;;;;;;;;;;23.80;39.70;;;;;;1541415;77;750;-65
2022/09/20 12:03:11;;;;;;;;;;;23.70;39.80;;;;;;1527659;76;1695;-65
2022/09/20 12:05:26;;;;;;;;;;;23.80;40.00;;;;;;1533663;77;1637;-66
2022/09/20 12:07:33;;;;;;;;;;;23.70;39.90;;;;;;1538232;75;1588;-66
2022/09/20 12:09:37;;;;;;;;;;;23.80;40.00;;;;;;1545789;77;620;-65
2022/09/20 12:11:40;;;;;;;;;;;23.80;39.80;;;;;;1527463;75;1775;-64
2022/09/20 12:13:43;;;;;;;;;;;23.80;39.70;;;;;;1541850;77;636;-65
2022/09/20 12:15:45;;;;;;;;;;;23.80;39.90;;;;;;1541010;75;1919;-65
2022/09/20 12:17:51;;;;;;;;;;;23.80;39.70;;;;;;1545703;75;1151;-64
2022/09/20 12:19:53;;;;;;;;;;;23.90;39.80;;;;;;1539622;75;670;-64
2022/09/20 12:21:59;;;;;;;;;;;23.90;39.60;;;;;;1536675;75;1560;-64
2022/09/20 12:24:02;;;;;;;;;;;24.00;39.60;;;;;;1545928;76;718;-66
2022/09/20 12:26:05;;;;;;;;;;;24.00;39.40;;;;;;1543661;76;824;-66
2022/09/20 12:28:09;;;;;;;;;;;24.00;39.20;;;;;;1531811;75;1157;-64
2022/09/20 12:30:19;;;;;;;;;;;24.10;39.50;;;;;;1548081;76;1960;-71
2022/09/20 12:32:34;;;;;;;;;;;24.10;39.50;;;;;;1548457;75;1063;-68
2022/09/20 12:34:36;;;;;;;;;;;24.00;39.20;;;;;;1545518;75;749;-67
2022/09/20 12:36:43;;;;;;;;;;;24.00;39.30;;;;;;1540167;75;1933;-67
2022/09/20 12:38:47;;;;;;;;;;;24.00;39.50;;;;;;1545105;75;1139;-67
2022/09/20 12:41:05;;;;;;;;;;;23.90;39.70;;;;;;1530980;75;666;-67
2022/09/20 12:43:08;;;;;;;;;;;23.90;39.50;;;;;;1543443;75;689;-66
2022/09/20 12:45:16;;;;;;;;;;;23.90;39.70;;;;;;1538408;75;1893;-66
2022/09/20 12:47:31;;;;;;;;;;;23.90;39.80;;;;;;1537435;75;737;-65